sensor_id;sensor_type;location;lat;lon;timestamp;pressure;altitude;pressure_sealevel;temperature;humidity
30554;BME280;17335;50.720;7.452;2023-05-22T00:01:04;99129.22;;;13.92;100.00
30554;BME280;17335;50.720;7.452;2023-05-22T00:03:31;99131.59;;;13.95;100.00
30554;BME280;17335;50.720;7.452;2023-05-22T00:05:58;99132.09;;;13.98;100.00
30554;BME280;17335;50.720;7.452;2023-05-22T00:08:26;99129.22;;;14.00;100.00
30554;BME280;17335;50.720;7.452;2023-05-22T00:10:55;99126.88;;;13.97;100.00
30554;BME280;17335;50.720;7.452;2023-05-22T00:13:22;99125.00;;;13.97;100.00
30554;BME280;17335;50.720;7.452;2023-05-22T00:15:49;99122.13;;;13.99;100.00
30554;BME280;17335;50.720;7.452;2023-05-22T00:18:15;99123.50;;;14.03;100.00
30554;BME280;17335;50.720;7.452;2023-05-22T00:20:42;99121.13;;;14.08;100.00
30554;BME280;17335;50.720;7.452;2023-05-22T00:23:12;99128.00;;;14.11;100.00
30554;BME280;17335;50.720;7.452;2023-05-22T00:25:41;99121.94;;;14.09;100.00
30554;BME280;17335;50.720;7.452;2023-05-22T00:28:07;99120.09;;;14.09;100.00
30554;BME280;17335;50.720;7.452;2023-05-22T00:30:35;99124.16;;;14.05;100.00
30554;BME280;17335;50.720;7.452;2023-05-22T00:33:02;99114.38;;;13.96;100.00
30554;BME280;17335;50.720;7.452;2023-05-22T00:35:29;99112.22;;;13.91;100.00
30554;BME280;17335;50.720;7.452;2023-05-22T00:37:56;99114.41;;;13.87;100.00
30554;BME280;17335;50.720;7.452;2023-05-22T00:40:23;99105.81;;;13.84;100.00
30554;BME280;17335;50.720;7.452;2023-05-22T00:42:49;99099.56;;;13.83;100.00
30554;BME280;17335;50.720;7.452;2023-05-22T00:45:16;99105.66;;;13.77;100.00
30554;BME280;17335;50.720;7.452;2023-05-22T00:47:43;99110.72;;;13.72;100.00
30554;BME280;17335;50.720;7.452;2023-05-22T00:50:10;99107.16;;;13.72;100.00
30554;BME280;17335;50.720;7.452;2023-05-22T00:52:40;99106.66;;;13.68;100.00
30554;BME280;17335;50.720;7.452;2023-05-22T00:55:08;99105.00;;;13.67;100.00
30554;BME280;17335;50.720;7.452;2023-05-22T00:57:36;99109.53;;;13.66;100.00
30554;BME280;17335;50.720;7.452;2023-05-22T01:00:06;99105.66;;;13.61;100.00
30554;BME280;17335;50.720;7.452;2023-05-22T01:02:36;99115.13;;;13.57;100.00
30554;BME280;17335;50.720;7.452;2023-05-22T01:05:04;99117.16;;;13.55;100.00
30554;BME280;17335;50.720;7.452;2023-05-22T01:07:36;99109.72;;;13.57;100.00
30554;BME280;17335;50.720;7.452;2023-05-22T01:10:04;99110.41;;;13.59;100.00
30554;BME280;17335;50.720;7.452;2023-05-22T01:15:02;99111.72;;;13.63;100.00
30554;BME280;17335;50.720;7.452;2023-05-22T01:33:05;99104.00;;;13.43;100.00
30554;BME280;17335;50.720;7.452;2023-05-22T01:35:33;99106.84;;;13.34;100.00
30554;BME280;17335;50.720;7.452;2023-05-22T01:38:03;99101.97;;;13.29;100.00
30554;BME280;17335;50.720;7.452;2023-05-22T01:40:30;99110.06;;;13.29;100.00
30554;BME280;17335;50.720;7.452;2023-05-22T01:42:57;99107.69;;;13.26;100.00
30554;BME280;17335;50.720;7.452;2023-05-22T01:45:24;99103.97;;;13.27;100.00
30554;BME280;17335;50.720;7.452;2023-05-22T01:47:51;99110.41;;;13.34;100.00
30554;BME280;17335;50.720;7.452;2023-05-22T01:50:18;99109.84;;;13.30;100.00
30554;BME280;17335;50.720;7.452;2023-05-22T01:53:06;99111.88;;;13.28;100.00
30554;BME280;17335;50.720;7.452;2023-05-22T01:56:00;99103.97;;;13.19;100.00
30554;BME280;17335;50.720;7.452;2023-05-22T01:58:55;99098.91;;;13.07;100.00
30554;BME280;17335;50.720;7.452;2023-05-22T02:01:27;99099.06;;;13.06;100.00
30554;BME280;17335;50.720;7.452;2023-05-22T02:03:57;99099.56;;;13.01;100.00
30554;BME280;17335;50.720;7.452;2023-05-22T02:06:28;99099.06;;;13.06;100.00
30554;BME280;17335;50.720;7.452;2023-05-22T02:08:58;99106.34;;;13.13;100.00
30554;BME280;17335;50.720;7.452;2023-05-22T02:11:26;99099.91;;;13.14;100.00
30554;BME280;17335;50.720;7.452;2023-05-22T02:13:55;99106.16;;;13.15;100.00
30554;BME280;17335;50.720;7.452;2023-05-22T02:16:22;99103.13;;;13.10;100.00
30554;BME280;17335;50.720;7.452;2023-05-22T02:18:49;99107.00;;;13.07;100.00
30554;BME280;17335;50.720;7.452;2023-05-22T02:21:21;99103.78;;;13.04;100.00
30554;BME280;17335;50.720;7.452;2023-05-22T02:23:47;99103.44;;;12.99;100.00
30554;BME280;17335;50.720;7.452;2023-05-22T02:26:14;99105.63;;;12.95;100.00
30554;BME280;17335;50.720;7.452;2023-05-22T02:28:41;99105.63;;;12.95;100.00
30554;BME280;17335;50.720;7.452;2023-05-22T02:31:09;99106.78;;;12.92;100.00
30554;BME280;17335;50.720;7.452;2023-05-22T02:33:36;99107.66;;;12.93;100.00
30554;BME280;17335;50.720;7.452;2023-05-22T02:36:03;99112.34;;;12.83;100.00
30554;BME280;17335;50.720;7.452;2023-05-22T02:38:30;99099.84;;;12.73;100.00
30554;BME280;17335;50.720;7.452;2023-05-22T02:40:56;99101.72;;;12.73;100.00
30554;BME280;17335;50.720;7.452;2023-05-22T02:43:23;99105.22;;;12.73;100.00
30554;BME280;17335;50.720;7.452;2023-05-22T02:45:49;99100.50;;;12.75;100.00
30554;BME280;17335;50.720;7.452;2023-05-22T02:48:16;99100.88;;;12.81;100.00
30554;BME280;17335;50.720;7.452;2023-05-22T02:50:44;99098.88;;;12.83;100.00
30554;BME280;17335;50.720;7.452;2023-05-22T02:53:14;99111.16;;;12.85;100.00
30554;BME280;17335;50.720;7.452;2023-05-22T02:55:42;99098.72;;;12.84;100.00
30554;BME280;17335;50.720;7.452;2023-05-22T02:58:10;99107.63;;;12.85;100.00
30554;BME280;17335;50.720;7.452;2023-05-22T03:00:37;99100.22;;;12.87;100.00
30554;BME280;17335;50.720;7.452;2023-05-22T03:03:04;99097.53;;;12.87;100.00
30554;BME280;17335;50.720;7.452;2023-05-22T03:05:32;99090.44;;;12.86;100.00
30554;BME280;17335;50.720;7.452;2023-05-22T03:07:59;99097.19;;;12.90;100.00
30554;BME280;17335;50.720;7.452;2023-05-22T03:10:25;99097.53;;;12.95;100.00
30554;BME280;17335;50.720;7.452;2023-05-22T03:12:52;99104.63;;;13.04;100.00
30554;BME280;17335;50.720;7.452;2023-05-22T03:15:19;99105.28;;;13.06;100.00
30554;BME280;17335;50.720;7.452;2023-05-22T03:17:46;99095.72;;;13.12;100.00
30554;BME280;17335;50.720;7.452;2023-05-22T03:20:13;99090.16;;;13.13;100.00
30554;BME280;17335;50.720;7.452;2023-05-22T03:22:43;99092.66;;;13.23;100.00
30554;BME280;17335;50.720;7.452;2023-05-22T03:25:09;99103.63;;;13.30;100.00
30554;BME280;17335;50.720;7.452;2023-05-22T03:27:38;99098.41;;;13.28;100.00
30554;BME280;17335;50.720;7.452;2023-05-22T03:30:05;99100.25;;;13.28;100.00
30554;BME280;17335;50.720;7.452;2023-05-22T03:32:32;99102.78;;;13.29;100.00
30554;BME280;17335;50.720;7.452;2023-05-22T03:35:03;99104.31;;;13.32;100.00
30554;BME280;17335;50.720;7.452;2023-05-22T03:37:30;99099.44;;;13.36;100.00
30554;BME280;17335;50.720;7.452;2023-05-22T03:39:57;99100.63;;;13.41;100.00
30554;BME280;17335;50.720;7.452;2023-05-22T03:42:23;99103.66;;;13.46;100.00
30554;BME280;17335;50.720;7.452;2023-05-22T03:44:50;99107.69;;;13.50;100.00
30554;BME280;17335;50.720;7.452;2023-05-22T03:47:17;99110.06;;;13.54;100.00
30554;BME280;17335;50.720;7.452;2023-05-22T03:49:44;99101.28;;;13.60;100.00
30554;BME280;17335;50.720;7.452;2023-05-22T03:52:11;99098.25;;;13.63;100.00
30554;BME280;17335;50.720;7.452;2023-05-22T03:54:38;99097.56;;;13.69;100.00
30554;BME280;17335;50.720;7.452;2023-05-22T03:57:04;99101.94;;;13.70;100.00
30554;BME280;17335;50.720;7.452;2023-05-22T03:59:31;99098.41;;;13.69;100.00
30554;BME280;17335;50.720;7.452;2023-05-22T04:01:57;99094.72;;;13.71;100.00
30554;BME280;17335;50.720;7.452;2023-05-22T04:04:27;99096.75;;;13.68;100.00
30554;BME280;17335;50.720;7.452;2023-05-22T04:06:53;99101.59;;;13.73;100.00
30554;BME280;17335;50.720;7.452;2023-05-22T04:09:26;99101.59;;;13.81;100.00
30554;BME280;17335;50.720;7.452;2023-05-22T04:11:52;99101.75;;;13.88;100.00
30554;BME280;17335;50.720;7.452;2023-05-22T04:14:19;99109.50;;;13.99;100.00
30554;BME280;17335;50.720;7.452;2023-05-22T04:16:46;99117.72;;;14.06;100.00
30554;BME280;17335;50.720;7.452;2023-05-22T04:19:15;99111.97;;;14.17;100.00
30554;BME280;17335;50.720;7.452;2023-05-22T04:21:43;99123.09;;;14.22;100.00
30554;BME280;17335;50.720;7.452;2023-05-22T04:24:10;99127.66;;;14.22;100.00
30554;BME280;17335;50.720;7.452;2023-05-22T04:26:37;99132.00;;;14.23;100.00
30554;BME280;17335;50.720;7.452;2023-05-22T04:29:07;99126.75;;;14.30;100.00
30554;BME280;17335;50.720;7.452;2023-05-22T04:31:35;99128.63;;;14.37;100.00
30554;BME280;17335;50.720;7.452;2023-05-22T04:34:02;99133.28;;;14.43;100.00
30554;BME280;17335;50.720;7.452;2023-05-22T04:36:32;99143.44;;;14.41;100.00
30554;BME280;17335;50.720;7.452;2023-05-22T04:38:59;99137.88;;;14.43;100.00
30554;BME280;17335;50.720;7.452;2023-05-22T04:41:27;99138.69;;;14.43;100.00
30554;BME280;17335;50.720;7.452;2023-05-22T04:43:54;99141.72;;;14.49;100.00
30554;BME280;17335;50.720;7.452;2023-05-22T04:46:20;99148.97;;;14.56;100.00
30554;BME280;17335;50.720;7.452;2023-05-22T04:48:47;99148.63;;;14.59;100.00
30554;BME280;17335;50.720;7.452;2023-05-22T04:51:14;99151.28;;;14.68;100.00
30554;BME280;17335;50.720;7.452;2023-05-22T04:53:41;99158.88;;;14.72;100.00
30554;BME280;17335;50.720;7.452;2023-05-22T04:56:08;99163.94;;;14.75;100.00
30554;BME280;17335;50.720;7.452;2023-05-22T04:58:38;99153.59;;;14.79;100.00
30554;BME280;17335;50.720;7.452;2023-05-22T05:01:05;99154.94;;;14.83;100.00
30554;BME280;17335;50.720;7.452;2023-05-22T05:03:33;99166.03;;;14.88;100.00
30554;BME280;17335;50.720;7.452;2023-05-22T05:05:59;99151.84;;;14.94;100.00
30554;BME280;17335;50.720;7.452;2023-05-22T05:08:26;99152.16;;;14.99;100.00
30554;BME280;17335;50.720;7.452;2023-05-22T05:10:53;99156.81;;;15.06;100.00
30554;BME280;17335;50.720;7.452;2023-05-22T05:13:19;99163.75;;;15.08;100.00
30554;BME280;17335;50.720;7.452;2023-05-22T05:15:46;99167.13;;;15.10;100.00
30554;BME280;17335;50.720;7.452;2023-05-22T05:18:12;99159.47;;;15.14;100.00
30554;BME280;17335;50.720;7.452;2023-05-22T05:20:39;99158.78;;;15.20;100.00
30554;BME280;17335;50.720;7.452;2023-05-22T05:23:06;99160.75;;;15.26;100.00
30554;BME280;17335;50.720;7.452;2023-05-22T05:25:35;99160.22;;;15.31;100.00
30554;BME280;17335;50.720;7.452;2023-05-22T05:28:04;99161.75;;;15.33;100.00
30554;BME280;17335;50.720;7.452;2023-05-22T05:30:39;99156.50;;;15.32;100.00
30554;BME280;17335;50.720;7.452;2023-05-22T05:33:07;99151.56;;;15.35;100.00
30554;BME280;17335;50.720;7.452;2023-05-22T05:35:33;99157.63;;;15.37;100.00
30554;BME280;17335;50.720;7.452;2023-05-22T05:38:00;99159.59;;;15.44;100.00
30554;BME280;17335;50.720;7.452;2023-05-22T05:40:27;99151.88;;;15.41;100.00
30554;BME280;17335;50.720;7.452;2023-05-22T05:42:53;99159.91;;;15.49;100.00
30554;BME280;17335;50.720;7.452;2023-05-22T05:45:20;99149.16;;;15.41;100.00
30554;BME280;17335;50.720;7.452;2023-05-22T05:47:47;99158.59;;;15.45;100.00
30554;BME280;17335;50.720;7.452;2023-05-22T05:50:13;99160.00;;;15.41;100.00
30554;BME280;17335;50.720;7.452;2023-05-22T05:52:40;99162.69;;;15.41;100.00
30554;BME280;17335;50.720;7.452;2023-05-22T05:55:07;99155.94;;;15.36;100.00
30554;BME280;17335;50.720;7.452;2023-05-22T05:57:34;99160.28;;;15.46;100.00
30554;BME280;17335;50.720;7.452;2023-05-22T06:00:01;99153.53;;;15.42;100.00
30554;BME280;17335;50.720;7.452;2023-05-22T06:02:29;99161.00;;;15.40;100.00
30554;BME280;17335;50.720;7.452;2023-05-22T06:04:56;99158.59;;;15.45;100.00
30554;BME280;17335;50.720;7.452;2023-05-22T06:07:24;99167.38;;;15.47;100.00
30554;BME280;17335;50.720;7.452;2023-05-22T06:09:51;99164.25;;;15.58;100.00
30554;BME280;17335;50.720;7.452;2023-05-22T06:12:17;99167.06;;;15.65;100.00
30554;BME280;17335;50.720;7.452;2023-05-22T06:14:44;99171.56;;;15.72;100.00
30554;BME280;17335;50.720;7.452;2023-05-22T06:17:11;99160.72;;;15.72;100.00
30554;BME280;17335;50.720;7.452;2023-05-22T06:19:37;99162.38;;;15.82;100.00
30554;BME280;17335;50.720;7.452;2023-05-22T06:22:04;99170.81;;;15.87;100.00
30554;BME280;17335;50.720;7.452;2023-05-22T06:24:30;99163.03;;;15.84;100.00
30554;BME280;17335;50.720;7.452;2023-05-22T06:26:58;99164.28;;;15.96;100.00
30554;BME280;17335;50.720;7.452;2023-05-22T06:29:25;99163.34;;;15.89;100.00
30554;BME280;17335;50.720;7.452;2023-05-22T06:31:52;99164.34;;;15.88;100.00
30554;BME280;17335;50.720;7.452;2023-05-22T06:34:18;99167.81;;;15.97;100.00
30554;BME280;17335;50.720;7.452;2023-05-22T06:36:46;99163.84;;;16.07;100.00
30554;BME280;17335;50.720;7.452;2023-05-22T06:39:16;99168.69;;;16.12;100.00
30554;BME280;17335;50.720;7.452;2023-05-22T06:41:43;99170.56;;;16.11;100.00
30554;BME280;17335;50.720;7.452;2023-05-22T06:44:10;99159.25;;;16.08;100.00
30554;BME280;17335;50.720;7.452;2023-05-22T06:46:38;99170.84;;;16.17;100.00
30554;BME280;17335;50.720;7.452;2023-05-22T06:49:06;99163.38;;;16.19;100.00
30554;BME280;17335;50.720;7.452;2023-05-22T06:51:33;99164.88;;;16.21;100.00
30554;BME280;17335;50.720;7.452;2023-05-22T06:53:59;99165.81;;;16.28;100.00
30554;BME280;17335;50.720;7.452;2023-05-22T06:56:26;99170.88;;;16.31;100.00
30554;BME280;17335;50.720;7.452;2023-05-22T06:58:52;99165.22;;;16.33;100.00
30554;BME280;17335;50.720;7.452;2023-05-22T07:01:19;99164.22;;;16.34;100.00
30554;BME280;17335;50.720;7.452;2023-05-22T07:03:45;99174.69;;;16.37;100.00
30554;BME280;17335;50.720;7.452;2023-05-22T07:06:12;99165.50;;;16.38;100.00
30554;BME280;17335;50.720;7.452;2023-05-22T07:08:38;99171.50;;;16.48;100.00
30554;BME280;17335;50.720;7.452;2023-05-22T07:11:08;99168.31;;;16.60;100.00
30554;BME280;17335;50.720;7.452;2023-05-22T07:13:35;99171.59;;;16.55;100.00
30554;BME280;17335;50.720;7.452;2023-05-22T07:16:02;99174.88;;;16.50;100.00
30554;BME280;17335;50.720;7.452;2023-05-22T07:18:29;99172.44;;;16.56;100.00
30554;BME280;17335;50.720;7.452;2023-05-22T07:20:57;99177.09;;;16.62;100.00
30554;BME280;17335;50.720;7.452;2023-05-22T07:23:23;99181.13;;;16.66;100.00
30554;BME280;17335;50.720;7.452;2023-05-22T07:25:51;99173.84;;;16.66;100.00
30554;BME280;17335;50.720;7.452;2023-05-22T07:28:18;99187.56;;;16.65;100.00
30554;BME280;17335;50.720;7.452;2023-05-22T07:30:44;99181.47;;;16.78;100.00
30554;BME280;17335;50.720;7.452;2023-05-22T07:33:11;99182.59;;;16.83;100.00
30554;BME280;17335;50.720;7.452;2023-05-22T07:35:39;99185.31;;;16.83;100.00
30554;BME280;17335;50.720;7.452;2023-05-22T07:38:05;99174.13;;;16.86;100.00
30554;BME280;17335;50.720;7.452;2023-05-22T07:40:32;99178.47;;;17.02;100.00
30554;BME280;17335;50.720;7.452;2023-05-22T07:42:59;99175.97;;;17.01;100.00
30554;BME280;17335;50.720;7.452;2023-05-22T07:45:25;99165.56;;;17.04;100.00
30554;BME280;17335;50.720;7.452;2023-05-22T07:47:53;99164.88;;;17.17;100.00
30554;BME280;17335;50.720;7.452;2023-05-22T07:50:21;99175.44;;;17.12;100.00
30554;BME280;17335;50.720;7.452;2023-05-22T07:52:48;99171.06;;;17.11;100.00
30554;BME280;17335;50.720;7.452;2023-05-22T07:55:14;99173.75;;;17.26;100.00
30554;BME280;17335;50.720;7.452;2023-05-22T07:57:42;99175.22;;;17.29;100.00
30554;BME280;17335;50.720;7.452;2023-05-22T08:00:09;99179.38;;;17.24;100.00
30554;BME280;17335;50.720;7.452;2023-05-22T08:02:40;99183.88;;;17.39;100.00
30554;BME280;17335;50.720;7.452;2023-05-22T08:05:07;99181.94;;;17.54;100.00
30554;BME280;17335;50.720;7.452;2023-05-22T08:07:35;99178.56;;;17.31;100.00
30554;BME280;17335;50.720;7.452;2023-05-22T08:10:05;99182.84;;;17.18;100.00
30554;BME280;17335;50.720;7.452;2023-05-22T08:12:32;99177.09;;;17.28;100.00
30554;BME280;17335;50.720;7.452;2023-05-22T08:14:59;99167.59;;;17.39;100.00
30554;BME280;17335;50.720;7.452;2023-05-22T08:17:26;99178.91;;;17.42;100.00
30554;BME280;17335;50.720;7.452;2023-05-22T08:19:53;99175.75;;;17.60;100.00
30554;BME280;17335;50.720;7.452;2023-05-22T08:22:20;99169.66;;;17.58;100.00
30554;BME280;17335;50.720;7.452;2023-05-22T08:24:47;99164.09;;;17.67;100.00
30554;BME280;17335;50.720;7.452;2023-05-22T08:27:13;99172.94;;;17.75;100.00
30554;BME280;17335;50.720;7.452;2023-05-22T08:29:39;99167.88;;;17.87;100.00
30554;BME280;17335;50.720;7.452;2023-05-22T08:32:06;99159.81;;;18.01;100.00
30554;BME280;17335;50.720;7.452;2023-05-22T08:34:34;99163.81;;;18.05;100.00
30554;BME280;17335;50.720;7.452;2023-05-22T08:37:00;99160.72;;;18.08;100.00
30554;BME280;17335;50.720;7.452;2023-05-22T08:39:27;99154.06;;;18.17;100.00
30554;BME280;17335;50.720;7.452;2023-05-22T08:41:55;99160.22;;;17.97;100.00
30554;BME280;17335;50.720;7.452;2023-05-22T08:44:21;99150.47;;;18.10;100.00
30554;BME280;17335;50.720;7.452;2023-05-22T08:46:50;99152.09;;;18.32;100.00
30554;BME280;17335;50.720;7.452;2023-05-22T08:49:19;99157.59;;;18.46;100.00
30554;BME280;17335;50.720;7.452;2023-05-22T08:51:53;99154.81;;;18.67;100.00
30554;BME280;17335;50.720;7.452;2023-05-22T08:54:23;99162.56;;;18.70;100.00
30554;BME280;17335;50.720;7.452;2023-05-22T08:56:52;99159.06;;;18.83;100.00
30554;BME280;17335;50.720;7.452;2023-05-22T08:59:23;99151.56;;;18.92;100.00
30554;BME280;17335;50.720;7.452;2023-05-22T09:01:50;99141.78;;;19.04;100.00
30554;BME280;17335;50.720;7.452;2023-05-22T09:04:17;99148.91;;;19.05;100.00
30554;BME280;17335;50.720;7.452;2023-05-22T09:06:48;99148.31;;;19.23;100.00
30554;BME280;17335;50.720;7.452;2023-05-22T09:09:16;99139.16;;;19.38;100.00
30554;BME280;17335;50.720;7.452;2023-05-22T09:11:43;99141.44;;;19.34;100.00
30554;BME280;17335;50.720;7.452;2023-05-22T09:14:10;99148.34;;;19.37;100.00
30554;BME280;17335;50.720;7.452;2023-05-22T09:16:46;99134.78;;;19.57;100.00
30554;BME280;17335;50.720;7.452;2023-05-22T09:19:14;99138.13;;;19.65;100.00
30554;BME280;17335;50.720;7.452;2023-05-22T09:21:42;99142.13;;;19.76;100.00
30554;BME280;17335;50.720;7.452;2023-05-22T09:24:10;99133.53;;;19.93;100.00
30554;BME280;17335;50.720;7.452;2023-05-22T09:26:39;99134.78;;;19.70;100.00
30554;BME280;17335;50.720;7.452;2023-05-22T09:29:06;99138.38;;;19.77;100.00
30554;BME280;17335;50.720;7.452;2023-05-22T09:31:42;99142.53;;;20.00;100.00
30554;BME280;17335;50.720;7.452;2023-05-22T09:34:10;99138.56;;;19.82;100.00
30554;BME280;17335;50.720;7.452;2023-05-22T09:36:39;99134.16;;;20.01;100.00
30554;BME280;17335;50.720;7.452;2023-05-22T09:39:06;99128.03;;;20.19;100.00
30554;BME280;17335;50.720;7.452;2023-05-22T09:41:38;99125.38;;;19.93;100.00
30554;BME280;17335;50.720;7.452;2023-05-22T09:44:11;99124.50;;;20.12;100.00
30554;BME280;17335;50.720;7.452;2023-05-22T09:46:44;99123.41;;;20.33;100.00
30554;BME280;17335;50.720;7.452;2023-05-22T09:49:11;99123.53;;;20.58;100.00
30554;BME280;17335;50.720;7.452;2023-05-22T09:51:43;99124.63;;;21.03;100.00
30554;BME280;17335;50.720;7.452;2023-05-22T09:54:14;99119.72;;;21.50;100.00
30554;BME280;17335;50.720;7.452;2023-05-22T09:56:42;99104.59;;;21.15;100.00
30554;BME280;17335;50.720;7.452;2023-05-22T09:59:11;99108.66;;;21.38;100.00
30554;BME280;17335;50.720;7.452;2023-05-22T10:01:39;99113.03;;;21.46;100.00
30554;BME280;17335;50.720;7.452;2023-05-22T10:04:11;99113.72;;;21.34;100.00
30554;BME280;17335;50.720;7.452;2023-05-22T10:06:41;99107.94;;;21.56;100.00
30554;BME280;17335;50.720;7.452;2023-05-22T10:09:11;99103.63;;;21.67;100.00
30554;BME280;17335;50.720;7.452;2023-05-22T10:11:45;99110.59;;;21.88;100.00
30554;BME280;17335;50.720;7.452;2023-05-22T10:14:12;99106.59;;;21.90;100.00
30554;BME280;17335;50.720;7.452;2023-05-22T10:16:39;99102.75;;;21.41;100.00
30554;BME280;17335;50.720;7.452;2023-05-22T10:19:06;99109.59;;;22.07;100.00
30554;BME280;17335;50.720;7.452;2023-05-22T10:21:34;99096.88;;;21.95;100.00
30554;BME280;17335;50.720;7.452;2023-05-22T10:24:02;99094.25;;;21.81;100.00
30554;BME280;17335;50.720;7.452;2023-05-22T10:26:29;99088.06;;;21.92;100.00
30554;BME280;17335;50.720;7.452;2023-05-22T10:29:16;99090.56;;;21.94;100.00
30554;BME280;17335;50.720;7.452;2023-05-22T10:40:29;99091.91;;;21.85;100.00
30554;BME280;17335;50.720;7.452;2023-05-22T10:43:00;99085.25;;;21.99;100.00
30554;BME280;17335;50.720;7.452;2023-05-22T10:45:28;99098.72;;;21.76;100.00
30554;BME280;17335;50.720;7.452;2023-05-22T10:48:05;99087.91;;;21.87;100.00
30554;BME280;17335;50.720;7.452;2023-05-22T10:50:33;99095.88;;;22.51;100.00
30554;BME280;17335;50.720;7.452;2023-05-22T10:55:53;99098.47;;;22.21;100.00
30554;BME280;17335;50.720;7.452;2023-05-22T10:58:33;99084.34;;;22.05;100.00
30554;BME280;17335;50.720;7.452;2023-05-22T11:01:10;99094.19;;;21.88;100.00
30554;BME280;17335;50.720;7.452;2023-05-22T11:03:57;99086.97;;;21.94;100.00
30554;BME280;17335;50.720;7.452;2023-05-22T11:06:40;99093.81;;;21.84;100.00
30554;BME280;17335;50.720;7.452;2023-05-22T11:11:47;99094.66;;;22.28;100.00
30554;BME280;17335;50.720;7.452;2023-05-22T11:14:35;99079.84;;;22.36;100.00
30554;BME280;17335;50.720;7.452;2023-05-22T11:17:02;99096.09;;;22.31;100.00
30554;BME280;17335;50.720;7.452;2023-05-22T11:19:29;99082.31;;;22.01;100.00
30554;BME280;17335;50.720;7.452;2023-05-22T11:21:59;99083.84;;;22.15;100.00
30554;BME280;17335;50.720;7.452;2023-05-22T11:24:31;99084.97;;;22.07;100.00
30554;BME280;17335;50.720;7.452;2023-05-22T11:27:00;99086.47;;;22.03;100.00
30554;BME280;17335;50.720;7.452;2023-05-22T11:29:28;99082.41;;;22.13;100.00
30554;BME280;17335;50.720;7.452;2023-05-22T11:31:55;99089.56;;;22.32;100.00
30554;BME280;17335;50.720;7.452;2023-05-22T11:34:24;99070.88;;;22.29;100.00
30554;BME280;17335;50.720;7.452;2023-05-22T11:36:58;99078.25;;;22.47;100.00
30554;BME280;17335;50.720;7.452;2023-05-22T11:39:25;99068.44;;;22.58;100.00
30554;BME280;17335;50.720;7.452;2023-05-22T11:41:52;99063.41;;;22.55;100.00
30554;BME280;17335;50.720;7.452;2023-05-22T11:44:20;99062.66;;;22.66;100.00
30554;BME280;17335;50.720;7.452;2023-05-22T11:46:46;99062.59;;;22.54;100.00
30554;BME280;17335;50.720;7.452;2023-05-22T11:49:13;99060.44;;;22.75;100.00
30554;BME280;17335;50.720;7.452;2023-05-22T11:51:40;99063.53;;;22.78;100.00
30554;BME280;17335;50.720;7.452;2023-05-22T11:54:07;99061.63;;;22.30;100.00
30554;BME280;17335;50.720;7.452;2023-05-22T11:56:33;99062.00;;;22.34;100.00
30554;BME280;17335;50.720;7.452;2023-05-22T11:59:00;99055.81;;;22.20;100.00
30554;BME280;17335;50.720;7.452;2023-05-22T12:01:26;99053.22;;;22.06;100.00
30554;BME280;17335;50.720;7.452;2023-05-22T12:03:53;99063.84;;;21.96;100.00
30554;BME280;17335;50.720;7.452;2023-05-22T12:06:20;99060.09;;;21.47;100.00
30554;BME280;17335;50.720;7.452;2023-05-22T12:08:47;99062.97;;;21.77;100.00
30554;BME280;17335;50.720;7.452;2023-05-22T12:11:13;99051.00;;;21.78;100.00
30554;BME280;17335;50.720;7.452;2023-05-22T12:13:40;99045.47;;;22.03;100.00
30554;BME280;17335;50.720;7.452;2023-05-22T12:16:18;99044.88;;;22.38;100.00
30554;BME280;17335;50.720;7.452;2023-05-22T12:18:45;99037.38;;;22.34;100.00
30554;BME280;17335;50.720;7.452;2023-05-22T12:21:11;99042.16;;;22.38;100.00
30554;BME280;17335;50.720;7.452;2023-05-22T12:23:47;99045.03;;;22.25;100.00
30554;BME280;17335;50.720;7.452;2023-05-22T12:26:15;99046.88;;;22.31;100.00
30554;BME280;17335;50.720;7.452;2023-05-22T12:28:42;99040.72;;;22.36;100.00
30554;BME280;17335;50.720;7.452;2023-05-22T12:31:09;99045.44;;;22.77;100.00
30554;BME280;17335;50.720;7.452;2023-05-22T12:33:38;99041.19;;;22.81;100.00
30554;BME280;17335;50.720;7.452;2023-05-22T12:36:09;99044.19;;;22.92;100.00
30554;BME280;17335;50.720;7.452;2023-05-22T12:38:36;99042.50;;;22.60;100.00
30554;BME280;17335;50.720;7.452;2023-05-22T12:41:03;99048.34;;;22.64;100.00
30554;BME280;17335;50.720;7.452;2023-05-22T12:43:31;99042.97;;;22.88;100.00
30554;BME280;17335;50.720;7.452;2023-05-22T12:45:58;99038.50;;;23.05;100.00
30554;BME280;17335;50.720;7.452;2023-05-22T12:48:27;99032.13;;;22.81;100.00
30554;BME280;17335;50.720;7.452;2023-05-22T12:50:54;99040.66;;;23.03;100.00
30554;BME280;17335;50.720;7.452;2023-05-22T12:53:21;99043.25;;;22.98;100.00
30554;BME280;17335;50.720;7.452;2023-05-22T12:55:47;99047.94;;;22.79;100.00
30554;BME280;17335;50.720;7.452;2023-05-22T12:58:14;99043.63;;;23.01;100.00
30554;BME280;17335;50.720;7.452;2023-05-22T13:00:41;99044.09;;;22.68;100.00
30554;BME280;17335;50.720;7.452;2023-05-22T13:03:07;99045.44;;;22.77;100.00
30554;BME280;17335;50.720;7.452;2023-05-22T13:05:34;99039.81;;;23.02;100.00
30554;BME280;17335;50.720;7.452;2023-05-22T13:08:01;99032.66;;;23.01;100.00
30554;BME280;17335;50.720;7.452;2023-05-22T13:10:28;99042.47;;;22.79;100.00
30554;BME280;17335;50.720;7.452;2023-05-22T13:12:55;99041.31;;;22.87;100.00
30554;BME280;17335;50.720;7.452;2023-05-22T13:15:22;99037.69;;;22.74;100.00
30554;BME280;17335;50.720;7.452;2023-05-22T13:17:48;99039.59;;;22.74;100.00
30554;BME280;17335;50.720;7.452;2023-05-22T13:20:15;99048.78;;;22.79;100.00
30554;BME280;17335;50.720;7.452;2023-05-22T13:22:41;99044.34;;;22.97;100.00
30554;BME280;17335;50.720;7.452;2023-05-22T13:25:08;99029.88;;;22.90;100.00
30554;BME280;17335;50.720;7.452;2023-05-22T13:27:35;99049.13;;;22.83;100.00